createdAt,value
2023-01-27T00:02:38.848Z,14.02
2023-01-27T00:06:51.230Z,14.07
2023-01-27T00:11:22.102Z,12.05
2023-01-27T00:15:35.415Z,13.65
2023-01-27T00:19:48.233Z,13.45
2023-01-27T00:24:18.986Z,10.38
2023-01-27T00:28:31.521Z,11.40
2023-01-27T00:33:02.188Z,12.95
2023-01-27T00:37:14.925Z,12.63
2023-01-27T00:41:29.210Z,10.77
2023-01-27T00:45:51.480Z,14.65
2023-01-27T00:50:12.915Z,12.48
2023-01-27T00:54:26.470Z,9.05
2023-01-27T00:58:39.387Z,14.13
2023-01-27T01:03:01.107Z,9.65
2023-01-27T01:07:16.561Z,9.77
2023-01-27T01:11:29.483Z,3.85
2023-01-27T01:15:42.818Z,3.70
2023-01-27T01:19:55.156Z,3.20
2023-01-27T01:24:07.557Z,3.35
2023-01-27T01:28:21.574Z,3.10
2023-01-27T01:32:36.592Z,3.53
2023-01-27T01:36:48.986Z,4.70
2023-01-27T01:41:04.104Z,4.93
2023-01-27T01:45:39.610Z,7.93
2023-01-27T01:49:51.935Z,10.85
2023-01-27T01:54:09.837Z,11.02
2023-01-27T01:58:23.720Z,11.60
2023-01-27T02:02:37.414Z,11.30
2023-01-27T02:07:20.399Z,11.23
2023-01-27T02:11:32.897Z,11.98
2023-01-27T02:15:47.896Z,14.48
2023-01-27T02:20:32.200Z,20.80
2023-01-27T02:24:50.972Z,20.30
2023-01-27T02:29:06.686Z,24.67
2023-01-27T02:33:19.100Z,23.60
2023-01-27T02:37:33.232Z,26.90
2023-01-27T02:41:51.463Z,26.42
2023-01-27T02:46:04.541Z,25.48
2023-01-27T02:50:17.980Z,25.98
2023-01-27T02:54:31.201Z,24.38
2023-01-27T02:58:43.863Z,26.80
2023-01-27T03:03:02.420Z,26.20
2023-01-27T03:07:14.791Z,24.00
2023-01-27T03:11:45.439Z,24.58
2023-01-27T03:16:20.226Z,23.05
2023-01-27T03:20:32.584Z,22.63
2023-01-27T03:24:45.054Z,22.17
2023-01-27T03:29:17.172Z,21.02
2023-01-27T03:33:31.878Z,20.45
2023-01-27T03:38:13.213Z,22.35
2023-01-27T03:42:43.919Z,20.75
2023-01-27T03:46:56.251Z,21.75
2023-01-27T03:51:10.255Z,21.83
2023-01-27T03:55:23.447Z,22.08
2023-01-27T03:59:36.232Z,23.45
2023-01-27T04:04:07.802Z,22.95
2023-01-27T04:08:21.349Z,27.45
2023-01-27T04:12:33.743Z,26.27
2023-01-27T04:16:46.723Z,27.65
2023-01-27T04:21:00.867Z,28.85
2023-01-27T04:25:15.698Z,27.63
2023-01-27T04:29:30.911Z,27.02
2023-01-27T04:33:45.489Z,29.85
2023-01-27T04:37:58.065Z,32.92
2023-01-27T04:42:10.317Z,31.73
2023-01-27T04:46:23.078Z,29.75
2023-01-27T04:50:36.197Z,27.25
2023-01-27T04:54:48.490Z,26.35
2023-01-27T04:59:02.881Z,26.70
2023-01-27T05:03:19.061Z,25.77
2023-01-27T05:07:32.567Z,23.05
2023-01-27T05:11:44.934Z,23.73
2023-01-27T05:16:20.170Z,22.75
2023-01-27T05:20:32.584Z,23.35
2023-01-27T05:24:46.876Z,22.67
2023-01-27T05:29:01.018Z,22.45
2023-01-27T05:33:14.025Z,21.75
2023-01-27T05:37:30.113Z,21.40
2023-01-27T05:41:45.043Z,20.25
2023-01-27T05:46:08.228Z,19.92
2023-01-27T05:50:20.555Z,19.50
2023-01-27T05:54:34.005Z,19.55
2023-01-27T05:58:47.023Z,19.67
2023-01-27T06:02:59.694Z,20.17
2023-01-27T06:07:12.098Z,20.45
2023-01-27T06:11:25.337Z,19.73
2023-01-27T06:15:41.030Z,20.77
2023-01-27T06:19:53.430Z,27.75
2023-01-27T06:24:06.222Z,25.60
2023-01-27T06:28:33.704Z,21.10
2023-01-27T06:32:46.029Z,20.60
2023-01-27T06:36:58.403Z,23.80
2023-01-27T06:41:12.427Z,24.50
2023-01-27T06:45:25.885Z,25.98
2023-01-27T06:49:38.263Z,29.48
2023-01-27T06:53:55.426Z,29.92
2023-01-27T06:58:09.142Z,28.70
2023-01-27T07:02:22.241Z,26.75
2023-01-27T07:06:34.592Z,29.25
2023-01-27T07:10:46.956Z,29.27
2023-01-27T07:14:59.334Z,30.23
2023-01-27T07:19:12.867Z,29.83
2023-01-27T07:23:25.356Z,29.00
2023-01-27T07:27:37.769Z,28.90
2023-01-27T07:31:52.093Z,28.45
2023-01-27T07:36:04.619Z,29.85
2023-01-27T07:40:17.315Z,27.50
2023-01-27T07:44:29.743Z,27.02
2023-01-27T07:48:42.099Z,26.27
2023-01-27T07:52:56.056Z,27.38
2023-01-27T07:57:08.498Z,24.00
2023-01-27T08:01:20.844Z,21.80
2023-01-27T08:05:34.910Z,21.00
2023-01-27T08:09:47.258Z,20.98
2023-01-27T08:14:00.625Z,21.15
2023-01-27T08:18:13.096Z,20.38
2023-01-27T08:22:30.227Z,19.38
2023-01-27T08:26:42.686Z,20.25
2023-01-27T08:30:55.607Z,19.92
2023-01-27T08:35:08.366Z,23.33
2023-01-27T08:39:22.637Z,24.33
2023-01-27T08:43:35.370Z,26.00
2023-01-27T08:47:48.009Z,23.75
2023-01-27T08:52:00.416Z,22.92
2023-01-27T08:56:15.227Z,21.38
2023-01-27T09:00:28.120Z,20.35
2023-01-27T09:04:44.556Z,19.67
2023-01-27T09:09:19.928Z,18.63
2023-01-27T09:13:32.735Z,18.48
2023-01-27T09:17:45.506Z,16.60
2023-01-27T09:21:59.641Z,17.38
2023-01-27T09:26:12.063Z,16.08
2023-01-27T09:30:25.986Z,16.00
2023-01-27T09:34:39.076Z,16.75
2023-01-27T09:39:09.389Z,15.63
2023-01-27T09:43:36.631Z,17.67
2023-01-27T09:47:59.125Z,20.23
2023-01-27T09:52:46.889Z,20.75
2023-01-27T09:57:27.952Z,19.67
2023-01-27T10:01:52.650Z,22.58
2023-01-27T10:06:35.011Z,22.48
2023-01-27T10:10:53.346Z,22.92
2023-01-27T10:15:46.441Z,24.58
2023-01-27T10:20:19.390Z,24.77
2023-01-27T10:24:45.227Z,26.13
2023-01-27T10:29:26.199Z,23.55
2023-01-27T10:38:21.031Z,20.27
2023-01-27T10:43:07.308Z,19.92
2023-01-27T10:47:35.033Z,18.75
2023-01-27T10:52:11.661Z,18.48
2023-01-27T10:56:50.002Z,15.85
2023-01-27T11:01:20.783Z,12.98
2023-01-27T11:05:38.931Z,9.70
2023-01-27T11:10:06.353Z,7.65
2023-01-27T11:14:30.394Z,5.78
2023-01-27T11:18:46.891Z,7.47
2023-01-27T11:23:17.972Z,6.20
2023-01-27T11:27:53.366Z,5.97
2023-01-27T11:32:19.848Z,6.30
2023-01-27T11:36:34.883Z,7.15
2023-01-27T11:40:51.509Z,7.60
2023-01-27T11:45:04.757Z,7.82
2023-01-27T11:49:23.853Z,4.20
2023-01-27T11:53:40.548Z,4.20
2023-01-27T11:58:16.182Z,4.50
2023-01-27T12:02:37.570Z,4.10
2023-01-27T12:07:12.328Z,5.00
2023-01-27T12:11:30.518Z,5.18
2023-01-27T12:16:04.844Z,4.50
2023-01-27T12:20:17.434Z,4.95
2023-01-27T12:24:36.554Z,4.90
2023-01-27T12:28:55.096Z,4.78
2023-01-27T12:33:22.986Z,3.53
2023-01-27T12:37:38.866Z,3.78
2023-01-27T12:41:51.708Z,3.45
2023-01-27T12:46:16.186Z,3.67
2023-01-27T12:50:32.874Z,4.30
2023-01-27T12:54:45.296Z,3.58
2023-01-27T12:58:59.759Z,3.58
2023-01-27T13:03:13.711Z,3.75
2023-01-27T13:07:30.942Z,3.80
2023-01-27T13:11:45.711Z,4.10
2023-01-27T13:16:08.804Z,4.32
2023-01-27T13:20:56.436Z,3.97
2023-01-27T13:25:18.629Z,4.50
2023-01-27T13:29:35.215Z,4.55
2023-01-27T13:33:53.501Z,4.50
2023-01-27T13:38:21.020Z,5.03
2023-01-27T13:42:44.099Z,5.05
2023-01-27T13:47:03.140Z,4.35
2023-01-27T13:51:21.501Z,4.10
2023-01-27T13:56:17.469Z,3.95
2023-01-27T14:00:52.324Z,4.43
2023-01-27T14:05:19.765Z,4.65
2023-01-27T14:09:53.901Z,4.50
2023-01-27T14:14:25.728Z,4.70
2023-01-27T14:18:46.775Z,5.68
2023-01-27T14:23:09.889Z,4.97
2023-01-27T14:27:32.906Z,5.65
2023-01-27T14:32:03.493Z,6.60
2023-01-27T14:36:21.901Z,8.07
2023-01-27T14:40:54.224Z,4.68
2023-01-27T14:45:32.111Z,5.25
2023-01-27T14:50:06.279Z,7.18
2023-01-27T14:54:29.392Z,6.72
2023-01-27T14:58:41.692Z,7.20
2023-01-27T15:03:32.964Z,7.20
2023-01-27T15:12:44.519Z,7.00
2023-01-27T15:17:53.958Z,7.82
2023-01-27T15:22:33.752Z,9.30
2023-01-27T15:26:48.252Z,10.18
2023-01-27T15:31:07.183Z,11.43
2023-01-27T15:35:22.416Z,10.30
2023-01-27T15:40:15.700Z,10.73
2023-01-27T15:44:40.960Z,12.40
2023-01-27T15:48:55.619Z,14.02
2023-01-27T15:53:32.808Z,13.65
2023-01-27T15:57:45.431Z,13.63
2023-01-27T16:02:17.497Z,13.85
2023-01-27T16:06:31.499Z,14.68
2023-01-27T16:10:45.359Z,13.88
2023-01-27T16:15:16.173Z,13.00
2023-01-27T16:19:38.928Z,15.15
2023-01-27T16:24:01.973Z,13.05
2023-01-27T16:28:18.887Z,13.20
2023-01-27T16:32:41.672Z,13.18
2023-01-27T16:37:15.894Z,14.70
2023-01-27T16:41:32.949Z,14.82
2023-01-27T16:45:53.874Z,14.68
2023-01-27T16:50:06.851Z,14.85
2023-01-27T16:54:26.521Z,9.93
2023-01-27T16:58:46.730Z,6.65
2023-01-27T17:03:06.335Z,7.35
2023-01-27T17:07:19.013Z,6.85
2023-01-27T17:11:35.821Z,6.80
2023-01-27T17:15:57.785Z,12.70
2023-01-27T17:20:30.622Z,20.92
2023-01-27T17:24:53.062Z,5.18
2023-01-27T17:29:05.634Z,4.45
2023-01-27T17:33:21.059Z,5.05
2023-01-27T17:37:33.612Z,6.50
2023-01-27T17:41:46.443Z,6.07
2023-01-27T17:46:20.438Z,6.50
2023-01-27T17:50:39.820Z,6.90
2023-01-27T17:54:52.589Z,5.90
2023-01-27T17:59:21.294Z,5.18
2023-01-27T18:03:36.841Z,6.18
2023-01-27T18:07:49.662Z,6.13
2023-01-27T18:12:05.411Z,5.78
2023-01-27T18:16:20.648Z,7.78
2023-01-27T18:20:36.435Z,10.38
2023-01-27T18:24:55.372Z,6.65
2023-01-27T18:29:21.317Z,10.85
2023-01-27T18:33:34.296Z,24.45
2023-01-27T18:37:58.895Z,8.55
2023-01-27T18:42:15.542Z,8.27
2023-01-27T18:46:28.355Z,8.38
2023-01-27T18:50:46.272Z,8.57
2023-01-27T18:55:03.032Z,8.75
2023-01-27T18:59:15.458Z,8.45
2023-01-27T19:03:30.859Z,8.88
2023-01-27T19:07:43.288Z,8.73
2023-01-27T19:11:57.430Z,9.43
2023-01-27T19:20:30.644Z,9.55
2023-01-27T19:24:47.429Z,10.05
2023-01-27T19:28:59.892Z,11.73
2023-01-27T19:33:25.543Z,12.60
2023-01-27T19:37:39.025Z,13.10
2023-01-27T19:41:51.805Z,17.33
2023-01-27T19:46:13.917Z,19.88
2023-01-27T19:50:28.838Z,23.55
2023-01-27T19:54:41.212Z,22.10
2023-01-27T19:58:54.444Z,21.83
2023-01-27T20:03:07.902Z,22.98
2023-01-27T20:07:20.318Z,24.58
2023-01-27T20:11:37.216Z,23.40
2023-01-27T20:15:49.726Z,23.65
2023-01-27T20:20:02.337Z,24.73
2023-01-27T20:24:20.180Z,24.20
2023-01-27T20:28:32.671Z,18.75
2023-01-27T20:32:45.456Z,49.00
2023-01-27T20:36:58.065Z,20.83
2023-01-27T20:41:14.437Z,16.90
2023-01-27T20:45:26.840Z,16.70
2023-01-27T20:49:39.611Z,17.35
2023-01-27T20:53:52.249Z,18.25
2023-01-27T20:58:04.756Z,33.45
2023-01-27T21:02:17.356Z,38.95
2023-01-27T21:06:29.956Z,37.30
2023-01-27T21:10:43.431Z,36.15
2023-01-27T21:14:59.306Z,36.13
2023-01-27T21:19:12.475Z,35.70
2023-01-27T21:23:29.322Z,38.45
2023-01-27T21:27:48.221Z,37.83
2023-01-27T21:32:01.460Z,37.73
2023-01-27T21:36:14.603Z,39.95
2023-01-27T21:40:27.542Z,29.40
2023-01-27T21:44:58.206Z,28.92
2023-01-27T21:53:23.845Z,29.20
2023-01-27T21:57:36.664Z,28.75
2023-01-27T22:01:49.103Z,28.35
2023-01-27T22:06:08.580Z,40.05
2023-01-27T22:10:26.723Z,42.58
2023-01-27T22:14:39.060Z,39.92
2023-01-27T22:18:51.461Z,25.85
2023-01-27T22:23:03.816Z,26.70
2023-01-27T22:27:16.184Z,25.55
2023-01-27T22:31:28.730Z,13.68
2023-01-27T22:35:41.387Z,10.30
2023-01-27T22:39:53.684Z,10.05
2023-01-27T22:44:06.206Z,9.18
2023-01-27T22:48:18.522Z,8.88
2023-01-27T22:52:30.960Z,10.30
2023-01-27T22:56:43.590Z,9.57
2023-01-27T23:00:56.484Z,9.18
2023-01-27T23:05:10.151Z,9.48
2023-01-27T23:09:23.195Z,10.30
2023-01-27T23:13:36.702Z,10.15
2023-01-27T23:17:49.946Z,8.95
2023-01-27T23:22:03.547Z,8.45
2023-01-27T23:26:17.267Z,9.15
2023-01-27T23:30:29.712Z,7.53
2023-01-27T23:34:42.157Z,8.25
2023-01-27T23:38:54.484Z,6.78
2023-01-27T23:43:07.120Z,7.70
2023-01-27T23:47:19.454Z,10.60
2023-01-27T23:51:32.181Z,10.75
2023-01-27T23:55:44.962Z,7.72
2023-01-27T23:59:57.270Z,8.40
